createdAt,value
2023-02-11T00:00:42.717Z,73.80
2023-02-11T00:03:25.468Z,62.17
2023-02-11T00:06:02.858Z,73.47
2023-02-11T00:08:30.188Z,64.07
2023-02-11T00:10:58.330Z,71.57
2023-02-11T00:13:26.039Z,69.03
2023-02-11T00:15:53.400Z,74.78
2023-02-11T00:18:20.596Z,69.50
2023-02-11T00:20:47.437Z,71.75
2023-02-11T00:23:15.134Z,89.15
2023-02-11T00:25:43.426Z,75.03
2023-02-11T00:28:11.082Z,80.80
2023-02-11T00:30:38.110Z,71.75
2023-02-11T00:33:05.268Z,75.63
2023-02-11T00:35:32.217Z,97.60
2023-02-11T00:37:59.297Z,80.00
2023-02-11T00:40:26.181Z,125.22
2023-02-11T00:42:53.334Z,97.13
2023-02-11T00:45:21.413Z,81.70
2023-02-11T00:47:48.806Z,70.65
2023-02-11T00:50:15.772Z,72.88
2023-02-11T00:52:43.008Z,76.93
2023-02-11T00:55:09.864Z,79.82
2023-02-11T00:57:37.391Z,80.88
2023-02-11T01:00:06.788Z,66.45
2023-02-11T01:02:34.189Z,68.60
2023-02-11T01:05:01.421Z,81.28
2023-02-11T01:07:28.891Z,77.22
2023-02-11T01:09:55.808Z,76.03
2023-02-11T01:12:24.009Z,68.20
2023-02-11T01:14:51.285Z,68.90
2023-02-11T01:17:18.498Z,82.32
2023-02-11T01:19:45.539Z,64.32
2023-02-11T01:22:12.752Z,72.35
2023-02-11T01:24:39.571Z,72.90
2023-02-11T01:27:06.664Z,63.47
2023-02-11T01:29:33.983Z,65.55
2023-02-11T01:32:01.391Z,63.28
2023-02-11T01:34:28.300Z,70.80
2023-02-11T01:37:01.272Z,69.32
2023-02-11T01:39:28.142Z,61.83
2023-02-11T01:41:55.282Z,65.57
2023-02-11T01:44:23.637Z,75.70
2023-02-11T01:46:50.960Z,67.25
2023-02-11T01:49:30.271Z,61.92
2023-02-11T01:52:07.208Z,57.95
2023-02-11T01:54:59.032Z,67.55
2023-02-11T01:57:29.787Z,64.25
2023-02-11T02:00:02.247Z,61.92
2023-02-11T02:02:49.120Z,62.47
2023-02-11T02:05:37.920Z,63.22
2023-02-11T02:08:23.855Z,65.03
2023-02-11T02:10:56.512Z,58.58
2023-02-11T02:13:24.736Z,58.47
2023-02-11T02:15:57.402Z,57.88
2023-02-11T02:19:02.347Z,60.33
2023-02-11T02:21:47.050Z,55.85
2023-02-11T02:24:41.984Z,60.50
2023-02-11T02:27:27.233Z,56.50
2023-02-11T02:29:57.146Z,51.17
2023-02-11T02:32:48.584Z,52.83
2023-02-11T02:35:24.638Z,50.38
2023-02-11T02:38:08.411Z,56.75
2023-02-11T02:40:42.947Z,45.92
2023-02-11T02:43:11.707Z,54.85
2023-02-11T02:45:38.843Z,52.53
2023-02-11T02:48:05.881Z,54.83
2023-02-11T02:50:37.455Z,53.40
2023-02-11T02:53:20.391Z,51.90
2023-02-11T02:56:07.640Z,54.08
2023-02-11T02:59:03.666Z,56.60
2023-02-11T03:01:50.346Z,46.75
2023-02-11T03:04:46.958Z,47.25
2023-02-11T03:07:57.001Z,49.60
2023-02-11T03:10:30.316Z,46.13
2023-02-11T03:12:58.390Z,42.60
2023-02-11T03:15:28.142Z,46.33
2023-02-11T03:17:58.850Z,50.00
2023-02-11T03:20:27.505Z,44.05
2023-02-11T03:23:11.449Z,47.67
2023-02-11T03:25:44.163Z,47.58
2023-02-11T03:28:24.585Z,41.67
2023-02-11T03:31:16.977Z,48.72
2023-02-11T03:33:53.320Z,45.88
2023-02-11T03:36:27.874Z,49.08
2023-02-11T03:38:58.363Z,40.50
2023-02-11T03:41:26.225Z,47.92
2023-02-11T03:43:57.271Z,47.72
2023-02-11T03:46:31.343Z,45.30
2023-02-11T03:49:04.714Z,48.20
2023-02-11T03:51:33.319Z,47.78
2023-02-11T03:54:03.599Z,43.47
2023-02-11T03:56:34.402Z,39.28
2023-02-11T03:59:01.680Z,47.72
2023-02-11T04:01:28.722Z,48.60
2023-02-11T04:03:56.084Z,46.88
2023-02-11T04:06:23.051Z,45.35
2023-02-11T04:08:50.173Z,45.05
2023-02-11T04:11:17.339Z,44.40
2023-02-11T04:13:44.559Z,43.78
2023-02-11T04:16:11.690Z,43.17
2023-02-11T04:18:38.920Z,40.55
2023-02-11T04:21:05.949Z,46.17
2023-02-11T04:23:33.199Z,40.65
2023-02-11T04:26:00.243Z,42.22
2023-02-11T04:28:29.539Z,40.63
2023-02-11T04:30:56.754Z,46.30
2023-02-11T04:33:24.427Z,39.90
2023-02-11T04:35:51.560Z,38.60
2023-02-11T04:38:19.078Z,38.78
2023-02-11T04:40:45.891Z,42.78
2023-02-11T04:43:12.933Z,44.63
2023-02-11T04:45:39.770Z,41.10
2023-02-11T04:48:07.254Z,46.08
2023-02-11T04:50:34.020Z,37.50
2023-02-11T04:53:01.117Z,43.13
2023-02-11T04:55:27.960Z,42.17
2023-02-11T04:57:55.377Z,41.67
2023-02-11T05:00:22.315Z,36.30
2023-02-11T05:02:49.494Z,41.78
2023-02-11T05:05:16.463Z,43.15
2023-02-11T05:07:43.657Z,106.55
2023-02-11T05:10:10.572Z,106.05
2023-02-11T05:12:37.625Z,101.22
2023-02-11T05:15:05.525Z,49.22
2023-02-11T05:17:32.630Z,49.78
2023-02-11T05:19:59.505Z,84.43
2023-02-11T05:22:26.699Z,62.53
2023-02-11T05:24:53.754Z,97.32
2023-02-11T05:27:20.844Z,56.17
2023-02-11T05:29:47.734Z,64.45
2023-02-11T05:32:14.907Z,85.88
2023-02-11T05:34:41.762Z,45.33
2023-02-11T05:37:09.062Z,57.90
2023-02-11T05:39:36.066Z,47.83
2023-02-11T05:42:03.330Z,47.70
2023-02-11T05:44:30.129Z,41.63
2023-02-11T05:46:57.220Z,41.35
2023-02-11T05:49:24.054Z,46.20
2023-02-11T05:51:51.339Z,37.00
2023-02-11T05:54:18.236Z,41.60
2023-02-11T05:56:45.450Z,42.75
2023-02-11T05:59:15.385Z,36.33
2023-02-11T06:01:42.617Z,36.38
2023-02-11T06:04:09.406Z,31.65
2023-02-11T06:06:36.650Z,38.10
2023-02-11T06:09:04.092Z,33.20
2023-02-11T06:11:31.666Z,40.15
2023-02-11T06:13:58.533Z,36.88
2023-02-11T06:16:25.877Z,37.13
2023-02-11T06:18:52.993Z,34.22
2023-02-11T06:21:20.136Z,38.15
2023-02-11T06:23:47.046Z,37.20
2023-02-11T06:26:20.672Z,36.63
2023-02-11T06:28:47.801Z,46.33
2023-02-11T06:31:15.994Z,36.75
2023-02-11T06:33:42.980Z,62.50
2023-02-11T06:36:16.676Z,56.50
2023-02-11T06:38:44.423Z,135.98
2023-02-11T06:41:16.566Z,91.97
2023-02-11T06:46:10.532Z,98.47
2023-02-11T06:48:37.772Z,67.07
2023-02-11T06:51:07.120Z,41.88
2023-02-11T06:53:39.108Z,90.35
2023-02-11T06:56:11.552Z,83.85
2023-02-11T06:58:38.575Z,71.97
2023-02-11T07:01:07.586Z,57.20
2023-02-11T07:03:36.610Z,106.18
2023-02-11T07:06:05.755Z,97.85
2023-02-11T07:08:37.053Z,91.07
2023-02-11T07:11:19.106Z,53.47
2023-02-11T07:13:46.964Z,53.05
2023-02-11T07:16:16.589Z,43.17
2023-02-11T07:18:44.452Z,49.10
2023-02-11T07:21:13.513Z,89.50
2023-02-11T07:23:41.481Z,47.22
2023-02-11T07:26:13.076Z,59.75
2023-02-11T07:28:41.033Z,56.20
2023-02-11T07:31:12.358Z,60.05
2023-02-11T07:33:39.530Z,44.55
2023-02-11T07:36:08.721Z,57.63
2023-02-11T07:38:36.401Z,57.05
2023-02-11T07:41:06.289Z,45.15
2023-02-11T07:43:33.957Z,57.53
2023-02-11T07:46:05.395Z,35.20
2023-02-11T07:48:32.449Z,41.45
2023-02-11T07:51:10.832Z,37.72
2023-02-11T07:53:38.018Z,51.05
2023-02-11T07:56:06.364Z,48.25
2023-02-11T07:58:33.767Z,44.22
2023-02-11T08:01:12.407Z,42.15
2023-02-11T08:03:42.033Z,44.97
2023-02-11T08:06:11.876Z,41.05
2023-02-11T08:08:38.951Z,48.20
2023-02-11T08:11:08.569Z,41.95
2023-02-11T08:13:36.358Z,38.15
2023-02-11T08:16:04.958Z,38.10
2023-02-11T08:18:32.726Z,46.65
2023-02-11T08:21:10.159Z,44.28
2023-02-11T08:23:38.327Z,45.25
2023-02-11T08:26:07.524Z,43.28
2023-02-11T08:28:39.802Z,43.03
2023-02-11T08:31:17.739Z,44.95
2023-02-11T08:33:45.028Z,48.90
2023-02-11T08:36:20.964Z,59.78
2023-02-11T08:38:48.281Z,64.15
2023-02-11T08:41:16.757Z,43.35
2023-02-11T08:43:44.938Z,45.88
2023-02-11T08:46:15.115Z,39.63
2023-02-11T08:48:42.211Z,43.08
2023-02-11T08:51:13.270Z,43.92
2023-02-11T08:53:40.109Z,38.92
2023-02-11T08:56:08.890Z,43.88
2023-02-11T08:58:35.677Z,37.60
2023-02-11T09:01:08.719Z,36.50
2023-02-11T09:03:35.580Z,32.25
2023-02-11T09:06:05.829Z,37.72
2023-02-11T09:08:36.104Z,36.15
2023-02-11T09:11:03.950Z,38.78
2023-02-11T09:13:31.799Z,39.40
2023-02-11T09:15:59.688Z,45.63
2023-02-11T09:18:26.890Z,46.40
2023-02-11T09:20:54.748Z,41.97
2023-02-11T09:23:21.602Z,38.00
2023-02-11T09:25:49.016Z,45.08
2023-02-11T09:28:16.053Z,41.55
2023-02-11T09:30:43.380Z,41.80
2023-02-11T09:33:10.318Z,37.28
2023-02-11T09:35:37.165Z,42.17
2023-02-11T09:38:05.676Z,43.95
2023-02-11T09:40:33.719Z,34.40
2023-02-11T09:43:16.020Z,46.33
2023-02-11T09:45:43.179Z,37.92
2023-02-11T09:48:21.661Z,44.55
2023-02-11T09:50:55.173Z,38.97
2023-02-11T09:53:31.518Z,42.65
2023-02-11T09:56:05.295Z,43.97
2023-02-11T09:58:39.146Z,45.58
2023-02-11T10:01:17.160Z,44.63
2023-02-11T10:04:00.018Z,49.38
2023-02-11T10:06:26.807Z,45.55
2023-02-11T10:09:07.306Z,44.10
2023-02-11T10:12:01.838Z,44.83
2023-02-11T10:15:06.604Z,40.30
2023-02-11T10:17:42.095Z,40.80
2023-02-11T10:20:24.990Z,48.20
2023-02-11T10:22:59.074Z,45.17
2023-02-11T10:25:30.181Z,43.20
2023-02-11T10:27:59.698Z,46.35
2023-02-11T10:30:36.035Z,41.92
2023-02-11T10:33:21.454Z,41.60
2023-02-11T10:35:48.855Z,40.80
2023-02-11T10:38:15.890Z,38.55
2023-02-11T10:40:43.134Z,43.45
2023-02-11T10:43:16.216Z,42.67
2023-02-11T10:45:48.668Z,41.45
2023-02-11T10:48:40.320Z,40.35
2023-02-11T10:51:14.597Z,42.80
2023-02-11T10:53:42.419Z,42.97
2023-02-11T10:56:23.696Z,45.05
2023-02-11T10:59:26.131Z,50.15
2023-02-11T11:01:57.697Z,45.00
2023-02-11T11:04:30.586Z,44.42
2023-02-11T11:07:39.196Z,44.33
2023-02-11T11:10:31.681Z,38.08
2023-02-11T11:12:58.866Z,53.08
2023-02-11T11:15:29.353Z,45.42
2023-02-11T11:18:21.855Z,55.05
2023-02-11T11:20:59.890Z,42.95
2023-02-11T11:23:28.597Z,49.42
2023-02-11T11:26:09.402Z,46.88
2023-02-11T11:28:43.555Z,49.75
2023-02-11T11:31:21.729Z,43.17
2023-02-11T11:33:51.196Z,50.80
2023-02-11T11:36:23.035Z,44.08
2023-02-11T11:38:58.431Z,44.72
2023-02-11T11:41:33.859Z,44.67
2023-02-11T11:44:21.440Z,48.15
2023-02-11T11:46:51.289Z,46.45
2023-02-11T11:49:28.198Z,45.10
2023-02-11T11:52:14.865Z,45.05
2023-02-11T11:54:45.714Z,42.85
2023-02-11T11:57:17.518Z,45.53
2023-02-11T11:59:45.360Z,43.90
2023-02-11T12:02:40.515Z,45.03
2023-02-11T12:05:10.881Z,46.38
2023-02-11T12:07:40.779Z,44.22
2023-02-11T12:10:26.438Z,46.28
2023-02-11T12:13:06.932Z,50.08
2023-02-11T12:15:43.973Z,48.17
2023-02-11T12:18:38.285Z,52.17
2023-02-11T12:21:23.881Z,54.35
2023-02-11T12:24:05.908Z,49.25
2023-02-11T12:26:57.880Z,79.70
2023-02-11T12:30:00.420Z,51.97
2023-02-11T12:32:51.891Z,52.33
2023-02-11T12:35:41.929Z,48.78
2023-02-11T12:38:26.902Z,55.88
2023-02-11T12:41:16.488Z,59.45
2023-02-11T12:43:45.281Z,56.00
2023-02-11T12:46:34.528Z,53.42
2023-02-11T12:49:48.168Z,54.00
2023-02-11T12:52:34.044Z,46.90
2023-02-11T12:55:08.428Z,50.40
2023-02-11T12:57:38.144Z,56.45
2023-02-11T13:00:24.906Z,50.13
2023-02-11T13:03:18.588Z,50.40
2023-02-11T13:06:00.150Z,49.92
2023-02-11T13:08:37.404Z,94.55
2023-02-11T13:11:14.356Z,57.58
2023-02-11T13:14:00.337Z,53.58
2023-02-11T13:16:58.507Z,53.35
2023-02-11T13:19:38.217Z,61.15
2023-02-11T13:22:05.271Z,62.08
2023-02-11T13:24:44.536Z,60.13
2023-02-11T13:27:36.868Z,55.15
2023-02-11T13:30:11.871Z,48.85
2023-02-11T13:33:17.747Z,69.78
2023-02-11T13:36:12.562Z,54.90
2023-02-11T13:38:39.864Z,78.15
2023-02-11T13:41:30.127Z,107.88
2023-02-11T13:46:59.729Z,100.63
2023-02-11T13:49:40.670Z,159.70
2023-02-11T13:52:32.762Z,84.60
2023-02-11T13:55:19.984Z,82.70
2023-02-11T13:58:06.731Z,76.90
2023-02-11T14:00:33.944Z,84.22
2023-02-11T14:03:31.325Z,55.45
2023-02-11T14:06:29.246Z,146.18
2023-02-11T14:09:11.593Z,104.88
2023-02-11T14:11:44.625Z,110.38
2023-02-11T14:14:19.946Z,87.28
2023-02-11T14:17:02.111Z,90.65
2023-02-11T14:19:49.471Z,111.03
2023-02-11T14:22:23.787Z,136.52
2023-02-11T14:24:53.881Z,114.28
2023-02-11T14:27:55.310Z,79.55
2023-02-11T14:30:46.023Z,71.07
2023-02-11T14:33:31.867Z,76.45
2023-02-11T14:36:22.816Z,65.15
2023-02-11T14:39:03.373Z,67.05
2023-02-11T14:41:35.508Z,69.85
2023-02-11T14:44:11.241Z,71.50
2023-02-11T14:46:38.215Z,85.82
2023-02-11T14:49:05.996Z,75.53
2023-02-11T14:51:39.952Z,211.75
2023-02-11T14:54:16.936Z,73.03
2023-02-11T14:56:46.914Z,73.35
2023-02-11T14:59:19.132Z,105.68
2023-02-11T15:01:50.661Z,63.70
2023-02-11T15:04:26.030Z,68.00
2023-02-11T15:06:54.317Z,65.03
2023-02-11T15:09:28.099Z,79.28
2023-02-11T15:11:57.843Z,75.43
2023-02-11T15:14:33.989Z,101.60
2023-02-11T15:17:03.972Z,80.38
2023-02-11T15:19:35.992Z,120.10
2023-02-11T15:22:18.630Z,73.80
2023-02-11T15:24:46.144Z,76.70
2023-02-11T15:27:18.579Z,74.93
2023-02-11T15:29:49.481Z,77.78
2023-02-11T15:32:22.036Z,149.43
2023-02-11T15:34:51.676Z,224.50
2023-02-11T15:37:25.915Z,88.00
2023-02-11T15:39:54.382Z,79.60
2023-02-11T15:42:38.086Z,80.97
2023-02-11T15:45:26.067Z,76.15
2023-02-11T15:47:57.514Z,82.13
2023-02-11T15:50:31.065Z,80.47
2023-02-11T15:53:02.882Z,99.28
2023-02-11T15:55:30.446Z,82.93
2023-02-11T15:58:00.470Z,105.30
2023-02-11T16:00:45.011Z,102.07
2023-02-11T16:03:32.806Z,90.57
2023-02-11T16:06:21.653Z,306.45
2023-02-11T16:09:00.376Z,81.10
2023-02-11T16:11:36.759Z,89.43
2023-02-11T16:14:23.459Z,103.35
2023-02-11T16:16:55.983Z,89.93
2023-02-11T16:19:25.673Z,85.82
2023-02-11T16:21:55.345Z,92.25
2023-02-11T16:24:28.028Z,88.15
2023-02-11T16:26:59.686Z,96.65
2023-02-11T16:29:28.947Z,98.32
2023-02-11T16:32:10.660Z,94.93
2023-02-11T16:34:37.638Z,83.88
2023-02-11T16:37:05.773Z,90.22
2023-02-11T16:39:33.230Z,97.45
2023-02-11T16:42:00.969Z,89.55
2023-02-11T16:44:28.223Z,82.50
2023-02-11T16:46:58.589Z,96.15
2023-02-11T16:49:35.650Z,76.25
2023-02-11T16:52:07.787Z,81.65
2023-02-11T16:54:34.725Z,86.35
2023-02-11T16:57:02.761Z,80.78
2023-02-11T16:59:29.600Z,81.63
2023-02-11T17:01:57.926Z,73.97
2023-02-11T17:04:31.259Z,67.07
2023-02-11T17:07:00.902Z,79.57
2023-02-11T17:09:30.643Z,75.05
2023-02-11T17:11:58.951Z,88.32
2023-02-11T17:14:26.156Z,88.30
2023-02-11T17:16:56.387Z,76.03
2023-02-11T17:19:23.735Z,82.57
2023-02-11T17:21:52.929Z,72.22
2023-02-11T17:24:21.560Z,76.90
2023-02-11T17:26:49.483Z,79.35
2023-02-11T17:29:19.572Z,85.85
2023-02-11T17:31:47.349Z,75.90
2023-02-11T17:34:14.605Z,89.20
2023-02-11T17:36:41.866Z,81.03
2023-02-11T17:39:09.432Z,89.43
2023-02-11T17:41:38.378Z,86.03
2023-02-11T17:44:07.541Z,79.43
2023-02-11T17:46:35.567Z,85.45
2023-02-11T17:49:02.766Z,83.70
2023-02-11T17:51:35.662Z,81.80
2023-02-11T17:54:06.309Z,86.25
2023-02-11T17:56:36.119Z,87.95
2023-02-11T17:59:04.398Z,88.13
2023-02-11T18:01:33.488Z,86.93
2023-02-11T18:04:01.786Z,91.60
2023-02-11T18:06:29.292Z,88.32
2023-02-11T18:09:00.457Z,80.72
2023-02-11T18:11:28.176Z,81.78
2023-02-11T18:13:55.154Z,79.95
2023-02-11T18:16:25.786Z,78.30
2023-02-11T18:18:53.263Z,71.70
2023-02-11T18:21:22.140Z,71.47
2023-02-11T18:23:49.759Z,68.53
2023-02-11T18:26:20.394Z,73.13
2023-02-11T18:28:48.865Z,70.53
2023-02-11T18:31:17.394Z,68.70
2023-02-11T18:33:46.123Z,69.53
2023-02-11T18:36:15.366Z,70.22
2023-02-11T18:38:46.260Z,66.97
2023-02-11T18:41:14.970Z,62.13
2023-02-11T18:43:43.154Z,60.78
2023-02-11T18:46:12.934Z,66.53
2023-02-11T18:48:40.504Z,65.15
2023-02-11T18:51:13.112Z,69.10
2023-02-11T18:53:39.966Z,57.00
2023-02-11T18:56:16.634Z,71.00
2023-02-11T18:58:43.728Z,65.50
2023-02-11T19:01:17.966Z,56.63
2023-02-11T19:03:45.474Z,58.28
2023-02-11T19:06:22.154Z,60.42
2023-02-11T19:08:50.011Z,56.17
2023-02-11T19:11:18.833Z,50.60
2023-02-11T19:13:49.756Z,56.88
2023-02-11T19:16:19.811Z,63.15
2023-02-11T19:18:46.989Z,61.13
2023-02-11T19:21:14.671Z,57.67
2023-02-11T19:23:41.648Z,54.35
2023-02-11T19:26:09.104Z,48.50
2023-02-11T19:28:37.569Z,54.78
2023-02-11T19:31:09.292Z,41.13
2023-02-11T19:33:36.447Z,44.22
2023-02-11T19:36:06.933Z,41.78
2023-02-11T19:38:34.388Z,42.33
2023-02-11T19:41:02.068Z,42.20
2023-02-11T19:43:29.112Z,42.30
2023-02-11T19:45:57.670Z,41.15
2023-02-11T19:48:25.633Z,36.70
2023-02-11T19:50:53.405Z,41.78
2023-02-11T19:53:20.286Z,42.78
2023-02-11T19:55:48.716Z,45.50
2023-02-11T19:58:16.753Z,50.67
2023-02-11T20:00:43.885Z,45.90
2023-02-11T20:03:11.810Z,40.92
2023-02-11T20:05:42.418Z,44.95
2023-02-11T20:08:09.384Z,41.22
2023-02-11T20:10:36.580Z,44.55
2023-02-11T20:13:04.020Z,40.05
2023-02-11T20:15:31.543Z,36.38
2023-02-11T20:17:58.454Z,35.95
2023-02-11T20:20:25.685Z,37.00
2023-02-11T20:22:52.632Z,33.20
2023-02-11T20:25:20.099Z,31.55
2023-02-11T20:27:47.245Z,31.60
2023-02-11T20:30:15.147Z,32.38
2023-02-11T20:32:42.279Z,31.17
2023-02-11T20:35:09.846Z,29.90
2023-02-11T20:37:36.732Z,32.17
2023-02-11T20:40:06.572Z,34.03
2023-02-11T20:42:33.539Z,31.55
2023-02-11T20:45:01.124Z,36.05
2023-02-11T20:47:28.049Z,36.88
2023-02-11T20:49:55.932Z,40.53
2023-02-11T20:52:22.757Z,36.63
2023-02-11T20:54:49.847Z,37.50
2023-02-11T20:57:16.745Z,36.75
2023-02-11T20:59:44.211Z,40.72
2023-02-11T21:02:12.537Z,111.95
2023-02-11T21:04:39.852Z,39.17
2023-02-11T21:07:06.672Z,39.63
2023-02-11T21:09:34.257Z,41.60
2023-02-11T21:12:03.559Z,39.30
2023-02-11T21:14:31.140Z,35.13
2023-02-11T21:16:58.444Z,37.13
2023-02-11T21:19:25.843Z,38.15
2023-02-11T21:21:54.813Z,40.67
2023-02-11T21:24:22.102Z,39.42
2023-02-11T21:26:49.005Z,41.65
2023-02-11T21:29:18.199Z,36.00
2023-02-11T21:31:45.273Z,41.28
2023-02-11T21:34:12.506Z,41.92
2023-02-11T21:36:39.284Z,40.08
2023-02-11T21:39:06.525Z,40.72
2023-02-11T21:41:33.421Z,44.33
2023-02-11T21:44:00.757Z,36.25
2023-02-11T21:46:28.232Z,38.38
2023-02-11T21:48:55.460Z,35.05
2023-02-11T21:51:24.415Z,39.85
2023-02-11T21:53:55.980Z,38.20
2023-02-11T21:56:23.690Z,36.92
2023-02-11T21:58:53.622Z,36.92
2023-02-11T22:01:23.805Z,33.65
2023-02-11T22:03:50.955Z,37.25
2023-02-11T22:06:26.213Z,34.90
2023-02-11T22:08:54.012Z,36.85
2023-02-11T22:11:20.934Z,34.25
2023-02-11T22:13:48.317Z,35.10
2023-02-11T22:16:16.725Z,29.55
2023-02-11T22:18:47.041Z,36.58
2023-02-11T22:21:16.922Z,52.92
2023-02-11T22:23:44.517Z,32.70
2023-02-11T22:26:16.603Z,35.13
2023-02-11T22:28:44.603Z,36.03
2023-02-11T22:31:17.485Z,32.60
2023-02-11T22:33:45.243Z,33.03
2023-02-11T22:36:27.721Z,32.47
2023-02-11T22:38:56.175Z,33.38
2023-02-11T22:41:23.501Z,30.33
2023-02-11T22:43:51.006Z,30.55
2023-02-11T22:46:19.610Z,34.88
2023-02-11T22:48:47.852Z,35.72
2023-02-11T22:51:21.366Z,32.20
2023-02-11T22:54:00.812Z,31.85
2023-02-11T22:56:29.010Z,53.83
2023-02-11T22:59:00.766Z,30.23
2023-02-11T23:01:28.932Z,27.30
2023-02-11T23:03:56.262Z,34.33
2023-02-11T23:06:24.350Z,29.98
2023-02-11T23:08:51.508Z,33.58
2023-02-11T23:11:24.367Z,30.15
2023-02-11T23:13:52.872Z,25.88
2023-02-11T23:16:23.307Z,27.20
2023-02-11T23:18:51.342Z,32.78
2023-02-11T23:21:28.075Z,28.30
2023-02-11T23:24:04.192Z,27.92
2023-02-11T23:26:31.757Z,27.85
2023-02-11T23:29:00.097Z,30.08
2023-02-11T23:31:37.643Z,27.35
2023-02-11T23:34:05.421Z,22.08
2023-02-11T23:36:33.368Z,37.25
2023-02-11T23:39:00.658Z,25.70
2023-02-11T23:41:27.554Z,24.65
2023-02-11T23:43:56.915Z,21.95
2023-02-11T23:46:25.418Z,23.08
2023-02-11T23:48:53.542Z,25.17
2023-02-11T23:51:20.796Z,27.88
2023-02-11T23:53:49.752Z,24.58
2023-02-11T23:56:22.272Z,22.30
2023-02-11T23:58:51.261Z,18.75
